createdAt,value
2017-10-03T00:02:20.679Z,99.90
2017-10-03T00:04:48.799Z,99.90
2017-10-03T00:07:17.722Z,99.90
2017-10-03T00:12:20.245Z,99.90
2017-10-03T00:14:49.844Z,99.90
2017-10-03T00:17:17.930Z,99.90
2017-10-03T00:19:45.996Z,99.90
2017-10-03T00:22:14.139Z,99.90
2017-10-03T00:24:42.224Z,99.90
2017-10-03T00:27:10.326Z,99.90
2017-10-03T00:29:39.174Z,99.90
2017-10-03T00:32:07.929Z,99.90
2017-10-03T00:34:36.788Z,99.90
2017-10-03T00:37:06.358Z,99.90
2017-10-03T00:39:34.446Z,99.90
2017-10-03T00:42:02.517Z,99.90
2017-10-03T00:44:30.606Z,99.90
2017-10-03T00:46:58.690Z,99.90
2017-10-03T00:49:27.559Z,99.90
2017-10-03T00:51:55.660Z,99.90
2017-10-03T00:54:23.718Z,99.90
2017-10-03T00:56:51.799Z,99.90
2017-10-03T00:59:19.896Z,99.90
2017-10-03T01:01:48.741Z,99.90
2017-10-03T01:04:17.594Z,99.90
2017-10-03T01:06:45.649Z,99.90
2017-10-03T01:09:13.740Z,99.90
2017-10-03T01:11:41.816Z,99.90
2017-10-03T01:14:09.904Z,99.90
2017-10-03T01:16:37.974Z,99.90
2017-10-03T01:19:06.070Z,99.90
2017-10-03T01:21:34.159Z,99.90
2017-10-03T01:24:02.265Z,99.90
2017-10-03T01:26:30.343Z,99.90
2017-10-03T01:28:58.458Z,99.90
2017-10-03T01:31:26.568Z,99.90
2017-10-03T01:33:55.409Z,99.90
2017-10-03T01:36:23.555Z,99.90
2017-10-03T01:38:51.661Z,99.90
2017-10-03T01:41:19.773Z,99.90
2017-10-03T01:43:47.862Z,99.90
2017-10-03T01:46:15.939Z,99.90
2017-10-03T01:48:44.022Z,99.90
2017-10-03T01:51:12.100Z,99.90
2017-10-03T01:53:40.720Z,99.90
2017-10-03T01:56:08.781Z,99.90
2017-10-03T01:58:36.869Z,99.90
2017-10-03T02:01:04.942Z,99.90
2017-10-03T02:03:33.054Z,99.90
2017-10-03T02:06:01.140Z,99.90
2017-10-03T02:08:29.206Z,99.90
2017-10-03T02:10:57.313Z,99.90
2017-10-03T02:13:25.398Z,99.90
2017-10-03T02:15:53.475Z,99.90
2017-10-03T02:18:21.531Z,99.90
2017-10-03T02:20:49.610Z,99.90
2017-10-03T02:23:17.694Z,99.90
2017-10-03T02:25:46.533Z,99.90
2017-10-03T02:28:14.628Z,99.90
2017-10-03T02:30:42.683Z,99.90
2017-10-03T02:33:10.794Z,99.90
2017-10-03T02:35:38.855Z,99.90
2017-10-03T02:38:06.943Z,99.90
2017-10-03T02:40:36.622Z,99.90
2017-10-03T02:43:04.745Z,99.90
2017-10-03T02:45:33.563Z,99.90
2017-10-03T02:48:01.638Z,99.90
2017-10-03T02:50:29.730Z,99.90
2017-10-03T02:52:57.817Z,99.90
2017-10-03T02:55:25.893Z,99.90
2017-10-03T02:57:53.967Z,99.90
2017-10-03T03:00:22.022Z,99.90
2017-10-03T03:02:50.117Z,99.90
2017-10-03T03:05:18.172Z,99.90
2017-10-03T03:07:46.262Z,99.90
2017-10-03T03:10:15.123Z,99.90
2017-10-03T03:12:43.173Z,99.90
2017-10-03T03:15:11.242Z,99.90
2017-10-03T03:17:39.291Z,99.90
2017-10-03T03:20:07.433Z,99.90
2017-10-03T03:22:35.486Z,99.90
2017-10-03T03:25:03.553Z,99.90
2017-10-03T03:27:31.750Z,99.90
2017-10-03T03:30:01.346Z,99.90
2017-10-03T03:32:29.431Z,99.90
2017-10-03T03:34:58.294Z,99.90
2017-10-03T03:37:26.362Z,99.90
2017-10-03T03:39:54.450Z,99.90
2017-10-03T03:42:22.538Z,99.90
2017-10-03T03:44:50.593Z,99.90
2017-10-03T03:47:18.723Z,99.90
2017-10-03T03:49:46.874Z,99.90
2017-10-03T03:52:15.217Z,99.90
2017-10-03T03:54:43.308Z,99.90
2017-10-03T03:57:12.136Z,99.90
2017-10-03T03:59:40.205Z,99.90
2017-10-03T04:02:08.272Z,99.90
2017-10-03T04:04:36.353Z,99.90
2017-10-03T04:07:04.455Z,99.90
2017-10-03T04:09:32.576Z,99.90
2017-10-03T04:12:00.654Z,99.90
2017-10-03T04:14:28.760Z,99.90
2017-10-03T04:16:56.841Z,99.90
2017-10-03T04:19:24.908Z,99.90
2017-10-03T04:21:53.482Z,99.90
2017-10-03T04:24:21.548Z,99.90
2017-10-03T04:26:49.634Z,99.90
2017-10-03T04:29:17.695Z,99.90
2017-10-03T04:31:46.530Z,99.90
2017-10-03T04:34:14.602Z,99.90
2017-10-03T04:36:42.675Z,99.90
2017-10-03T04:39:10.759Z,99.90
2017-10-03T04:41:38.831Z,99.90
2017-10-03T04:44:06.922Z,99.90
2017-10-03T04:46:35.018Z,99.90
2017-10-03T04:49:03.139Z,99.90
2017-10-03T04:51:31.235Z,99.90
2017-10-03T04:53:59.314Z,99.90
2017-10-03T04:56:27.387Z,99.90
2017-10-03T04:58:55.484Z,99.90
2017-10-03T05:01:23.555Z,99.90
2017-10-03T05:03:51.647Z,99.90
2017-10-03T05:06:19.745Z,99.90
2017-10-03T05:08:48.618Z,99.90
2017-10-03T05:11:16.703Z,99.90
2017-10-03T05:13:45.551Z,99.90
2017-10-03T05:16:13.665Z,99.90
2017-10-03T05:18:42.495Z,99.90
2017-10-03T05:21:10.599Z,99.90
2017-10-03T05:23:38.665Z,99.90
2017-10-03T05:26:06.720Z,99.90
2017-10-03T05:28:34.799Z,99.90
2017-10-03T05:31:02.898Z,99.90
2017-10-03T05:33:30.990Z,99.90
2017-10-03T05:35:59.855Z,99.90
2017-10-03T05:38:27.951Z,99.90
2017-10-03T05:40:56.803Z,99.90
2017-10-03T05:43:24.879Z,99.90
2017-10-03T05:45:52.984Z,99.90
2017-10-03T05:48:21.119Z,99.90
2017-10-03T05:50:49.171Z,99.90
2017-10-03T05:53:17.255Z,99.90
2017-10-03T05:55:46.089Z,99.90
2017-10-03T05:58:14.183Z,99.90
2017-10-03T06:00:42.266Z,99.90
2017-10-03T06:03:10.340Z,99.90
2017-10-03T06:05:38.451Z,99.90
2017-10-03T06:08:06.525Z,99.90
2017-10-03T06:10:35.387Z,99.90
2017-10-03T06:13:03.741Z,99.90
2017-10-03T06:15:31.814Z,99.90
2017-10-03T06:17:59.907Z,99.90
2017-10-03T06:20:27.973Z,99.90
2017-10-03T06:22:56.075Z,99.90
2017-10-03T06:25:24.911Z,99.90
2017-10-03T06:27:52.991Z,99.90
2017-10-03T06:30:21.107Z,99.90
2017-10-03T06:32:49.190Z,99.90
2017-10-03T06:35:17.266Z,99.90
2017-10-03T06:37:45.340Z,99.90
2017-10-03T06:40:13.407Z,99.90
2017-10-03T06:42:41.519Z,99.90
2017-10-03T06:45:09.580Z,99.90
2017-10-03T06:47:37.720Z,99.90
2017-10-03T06:50:05.790Z,99.90
2017-10-03T06:52:33.859Z,99.90
2017-10-03T06:55:01.942Z,99.90
2017-10-03T06:57:30.043Z,99.90
2017-10-03T06:59:58.854Z,99.90
2017-10-03T07:02:26.914Z,99.90
2017-10-03T07:04:54.999Z,99.90
2017-10-03T07:07:23.086Z,99.90
2017-10-03T07:09:51.188Z,99.90
2017-10-03T07:12:20.003Z,99.90
2017-10-03T07:14:48.859Z,99.90
2017-10-03T07:17:16.952Z,99.90
2017-10-03T07:19:45.808Z,99.90
2017-10-03T07:22:13.905Z,99.90
2017-10-03T07:24:41.953Z,99.90
2017-10-03T07:27:10.043Z,99.90
2017-10-03T07:29:38.914Z,99.90
2017-10-03T07:32:06.991Z,99.90
2017-10-03T07:34:35.053Z,99.90
2017-10-03T07:37:03.396Z,99.90
2017-10-03T07:39:31.485Z,99.90
2017-10-03T07:41:59.564Z,99.90
2017-10-03T07:44:27.642Z,99.90
2017-10-03T07:46:55.703Z,99.90
2017-10-03T07:49:23.841Z,99.90
2017-10-03T07:51:51.943Z,99.90
2017-10-03T07:54:20.030Z,99.90
2017-10-03T07:56:48.084Z,99.90
2017-10-03T07:59:16.161Z,99.90
2017-10-03T08:01:44.235Z,99.90
2017-10-03T08:04:13.079Z,99.90
2017-10-03T08:06:41.220Z,99.90
2017-10-03T08:09:10.057Z,99.90
2017-10-03T08:11:38.146Z,99.90
2017-10-03T08:14:06.212Z,99.90
2017-10-03T08:16:34.299Z,99.90
2017-10-03T08:19:03.166Z,99.90
2017-10-03T08:21:31.245Z,99.90
2017-10-03T08:23:59.330Z,99.90
2017-10-03T08:26:28.171Z,99.90
2017-10-03T08:28:56.246Z,99.90
2017-10-03T08:31:24.314Z,99.90
2017-10-03T08:33:52.389Z,99.90
2017-10-03T08:36:20.501Z,99.90
2017-10-03T08:38:48.571Z,99.90
2017-10-03T08:41:16.654Z,99.90
2017-10-03T08:43:44.727Z,99.90
2017-10-03T08:46:13.567Z,99.90
2017-10-03T08:48:41.662Z,99.90
2017-10-03T08:51:09.742Z,99.90
2017-10-03T08:53:37.819Z,99.90
2017-10-03T08:56:05.896Z,99.90
2017-10-03T08:58:33.986Z,99.90
2017-10-03T09:01:02.025Z,99.90
2017-10-03T09:03:30.095Z,99.90
2017-10-03T09:05:58.245Z,99.90
2017-10-03T09:08:26.345Z,99.90
2017-10-03T09:10:54.410Z,99.90
2017-10-03T09:13:22.528Z,99.90
2017-10-03T09:15:51.463Z,99.90
2017-10-03T09:18:19.599Z,99.90
2017-10-03T09:20:47.699Z,99.90
2017-10-03T09:23:15.756Z,99.90
2017-10-03T09:25:43.865Z,99.90
2017-10-03T09:28:11.952Z,99.90
2017-10-03T09:30:40.794Z,99.90
2017-10-03T09:33:08.879Z,99.90
2017-10-03T09:35:36.983Z,99.60
2017-10-03T09:38:05.838Z,99.80
2017-10-03T09:40:33.876Z,99.80
2017-10-03T09:43:01.971Z,98.50
2017-10-03T09:45:30.056Z,98.30
2017-10-03T09:47:58.166Z,97.80
2017-10-03T09:50:26.232Z,97.10
2017-10-03T09:52:55.067Z,92.90
2017-10-03T09:55:23.157Z,92.50
2017-10-03T09:57:51.247Z,90.60
2017-10-03T10:00:19.501Z,90.40
2017-10-03T10:02:47.598Z,90.20
2017-10-03T10:05:15.725Z,90.70
2017-10-03T10:07:43.820Z,91.30
2017-10-03T10:10:12.847Z,92.60
2017-10-03T10:12:41.038Z,93.90
2017-10-03T10:15:09.123Z,94.00
2017-10-03T10:17:37.499Z,94.60
2017-10-03T10:20:06.397Z,81.00
2017-10-03T10:22:34.621Z,80.70
2017-10-03T10:25:03.320Z,76.30
2017-10-03T10:27:31.413Z,72.50
2017-10-03T10:30:00.276Z,77.50
2017-10-03T10:32:28.384Z,77.40
2017-10-03T10:34:56.468Z,80.40
2017-10-03T10:37:24.552Z,85.90
2017-10-03T10:39:52.618Z,86.30
2017-10-03T10:42:20.704Z,76.10
2017-10-03T10:44:48.778Z,72.60
2017-10-03T10:47:17.026Z,64.70
2017-10-03T10:49:45.845Z,58.20
2017-10-03T10:52:13.968Z,58.10
2017-10-03T10:54:42.005Z,54.60
2017-10-03T10:57:10.058Z,53.30
2017-10-03T10:59:38.947Z,50.70
2017-10-03T11:02:07.795Z,50.50
2017-10-03T11:04:35.857Z,50.40
2017-10-03T11:07:03.930Z,48.10
2017-10-03T11:09:32.002Z,50.20
2017-10-03T11:12:00.085Z,55.30
2017-10-03T11:14:28.176Z,60.00
2017-10-03T11:16:56.236Z,64.20
2017-10-03T11:19:24.328Z,63.50
2017-10-03T11:21:53.192Z,56.30
2017-10-03T11:24:33.113Z,55.60
2017-10-03T11:27:01.179Z,55.60
2017-10-03T11:29:29.266Z,56.80
2017-10-03T11:31:57.369Z,57.70
2017-10-03T11:34:25.410Z,56.30
2017-10-03T11:36:53.520Z,54.20
2017-10-03T11:39:21.630Z,51.40
2017-10-03T11:41:49.728Z,51.10
2017-10-03T11:44:17.789Z,52.20
2017-10-03T11:46:45.892Z,52.50
2017-10-03T11:49:14.025Z,53.60
2017-10-03T11:51:42.114Z,55.30
2017-10-03T11:54:10.182Z,59.10
2017-10-03T11:56:38.253Z,61.50
2017-10-03T11:59:06.348Z,66.50
2017-10-03T12:01:34.424Z,69.80
2017-10-03T12:04:02.522Z,73.20
2017-10-03T12:06:30.590Z,76.50
2017-10-03T12:08:58.663Z,73.90
2017-10-03T12:11:26.750Z,75.80
2017-10-03T12:13:54.827Z,75.70
2017-10-03T12:16:23.730Z,76.20
2017-10-03T12:18:52.574Z,77.50
2017-10-03T12:21:20.686Z,77.50
2017-10-03T12:23:48.794Z,77.90
2017-10-03T12:26:16.879Z,78.30
2017-10-03T12:28:45.588Z,82.70
2017-10-03T12:31:15.029Z,80.30
2017-10-03T12:33:43.104Z,80.30
2017-10-03T12:36:11.949Z,80.70
2017-10-03T12:38:40.012Z,80.60
2017-10-03T12:41:08.667Z,79.10
2017-10-03T12:43:36.807Z,79.60
2017-10-03T12:46:05.654Z,81.10
2017-10-03T12:48:33.762Z,81.10
2017-10-03T12:51:01.863Z,79.70
2017-10-03T12:53:29.945Z,79.50
2017-10-03T12:55:58.034Z,81.10
2017-10-03T12:58:26.143Z,82.10
2017-10-03T13:00:54.958Z,85.90
2017-10-03T13:03:23.038Z,85.90
2017-10-03T13:05:51.120Z,88.00
2017-10-03T13:08:19.190Z,87.90
2017-10-03T13:10:47.261Z,86.00
2017-10-03T13:13:15.334Z,88.60
2017-10-03T13:15:43.442Z,88.40
2017-10-03T13:18:12.281Z,90.00
2017-10-03T13:20:40.375Z,90.30
2017-10-03T13:23:08.483Z,91.50
2017-10-03T13:25:37.294Z,91.10
2017-10-03T13:28:05.907Z,91.10
2017-10-03T13:30:33.983Z,91.30
2017-10-03T13:33:02.057Z,91.90
2017-10-03T13:35:30.142Z,89.60
2017-10-03T13:37:58.211Z,90.00
2017-10-03T13:40:26.291Z,90.60
2017-10-03T13:42:54.356Z,89.90
2017-10-03T13:45:22.437Z,88.50
2017-10-03T13:47:50.476Z,90.10
2017-10-03T13:50:18.599Z,89.10
2017-10-03T13:52:46.688Z,90.40
2017-10-03T13:55:15.473Z,90.30
2017-10-03T13:57:44.311Z,90.30
2017-10-03T14:00:12.403Z,90.20
2017-10-03T14:02:40.447Z,90.00
2017-10-03T14:05:08.531Z,90.90
2017-10-03T14:07:36.672Z,89.70
2017-10-03T14:10:04.755Z,90.70
2017-10-03T14:12:32.872Z,90.10
2017-10-03T14:15:01.707Z,90.60
2017-10-03T14:17:29.812Z,90.50
2017-10-03T14:19:57.911Z,91.30
2017-10-03T14:22:25.978Z,91.40
2017-10-03T14:24:54.841Z,91.80
2017-10-03T14:27:22.919Z,91.80
2017-10-03T14:29:51.016Z,91.70
2017-10-03T14:32:19.109Z,92.20
2017-10-03T14:34:47.163Z,91.10
2017-10-03T14:37:15.559Z,87.90
2017-10-03T14:39:43.634Z,88.80
2017-10-03T14:42:11.737Z,87.30
2017-10-03T14:44:39.800Z,88.20
2017-10-03T14:47:07.892Z,89.10
2017-10-03T14:49:35.973Z,89.50
2017-10-03T14:52:04.075Z,88.80
2017-10-03T14:54:32.184Z,89.50
2017-10-03T14:57:00.227Z,90.30
2017-10-03T14:59:28.405Z,90.90
2017-10-03T15:01:56.507Z,90.80
2017-10-03T15:04:24.617Z,90.20
2017-10-03T15:06:52.699Z,90.70
2017-10-03T15:09:20.796Z,89.10
2017-10-03T15:11:48.855Z,89.40
2017-10-03T15:14:16.932Z,89.00
2017-10-03T15:16:45.040Z,89.20
2017-10-03T15:19:13.115Z,90.80
2017-10-03T15:21:41.969Z,92.30
2017-10-03T15:24:10.053Z,92.40
2017-10-03T15:26:38.148Z,93.50
2017-10-03T15:29:06.221Z,94.80
2017-10-03T15:31:34.308Z,96.20
2017-10-03T15:34:02.417Z,97.50
2017-10-03T15:36:30.538Z,98.10
2017-10-03T15:38:58.632Z,97.90
2017-10-03T15:41:26.746Z,99.10
2017-10-03T15:43:54.845Z,98.70
2017-10-03T15:46:23.689Z,99.20
2017-10-03T15:48:51.764Z,99.10
2017-10-03T15:51:21.366Z,99.10
2017-10-03T15:53:49.480Z,99.10
2017-10-03T15:56:18.327Z,97.50
2017-10-03T15:58:46.416Z,97.50
2017-10-03T16:01:14.589Z,97.40
2017-10-03T16:03:42.670Z,95.50
2017-10-03T16:06:10.779Z,94.70
2017-10-03T16:08:38.876Z,93.80
2017-10-03T16:11:06.922Z,92.10
2017-10-03T16:13:35.008Z,92.30
2017-10-03T16:16:03.082Z,93.10
2017-10-03T16:18:31.152Z,93.30
2017-10-03T16:20:59.311Z,92.80
2017-10-03T16:23:27.412Z,94.40
2017-10-03T16:25:56.991Z,97.30
2017-10-03T16:28:25.067Z,97.30
2017-10-03T16:30:53.149Z,98.00
2017-10-03T16:33:21.258Z,98.30
2017-10-03T16:35:50.116Z,99.60
2017-10-03T16:38:18.988Z,99.40
2017-10-03T16:40:47.138Z,99.30
2017-10-03T16:43:15.224Z,99.90
2017-10-03T16:45:43.307Z,99.90
2017-10-03T16:48:11.411Z,99.90
2017-10-03T16:50:40.254Z,99.90
2017-10-03T16:53:08.321Z,99.90
2017-10-03T16:55:36.527Z,99.70
2017-10-03T16:58:04.607Z,99.80
2017-10-03T17:00:33.440Z,99.90
2017-10-03T17:03:01.519Z,99.60
2017-10-03T17:05:29.602Z,99.60
2017-10-03T17:07:57.676Z,99.90
2017-10-03T17:10:25.748Z,99.90
2017-10-03T17:12:53.829Z,99.90
2017-10-03T17:15:21.922Z,99.80
2017-10-03T17:17:50.006Z,99.90
2017-10-03T17:20:18.870Z,99.60
2017-10-03T17:22:46.930Z,99.90
2017-10-03T17:25:15.024Z,99.40
2017-10-03T17:27:43.086Z,99.10
2017-10-03T17:30:11.157Z,98.70
2017-10-03T17:32:39.225Z,98.70
2017-10-03T17:35:07.332Z,98.70
2017-10-03T17:37:36.889Z,97.70
2017-10-03T17:40:04.945Z,97.70
2017-10-03T17:42:33.031Z,98.10
2017-10-03T17:45:01.083Z,98.00
2017-10-03T17:47:29.181Z,98.00
2017-10-03T17:49:57.257Z,98.00
2017-10-03T17:52:25.330Z,98.30
2017-10-03T17:54:54.915Z,97.50
2017-10-03T17:57:23.052Z,97.50
2017-10-03T17:59:51.893Z,97.50
2017-10-03T18:02:19.962Z,97.50
2017-10-03T18:04:48.842Z,97.40
2017-10-03T18:07:17.660Z,97.70
2017-10-03T18:09:45.810Z,97.70
2017-10-03T18:12:13.890Z,97.70
2017-10-03T18:14:41.954Z,98.00
2017-10-03T18:17:11.103Z,97.70
2017-10-03T18:19:39.216Z,97.70
2017-10-03T18:22:08.033Z,97.90
2017-10-03T18:24:36.107Z,97.80
2017-10-03T18:27:04.266Z,97.90
2017-10-03T18:29:32.351Z,98.20
2017-10-03T18:34:34.769Z,98.20
2017-10-03T18:37:02.867Z,98.70
2017-10-03T18:39:31.724Z,99.10
2017-10-03T18:41:59.808Z,99.10
2017-10-03T18:44:27.919Z,99.10
2017-10-03T18:46:55.985Z,98.70
2017-10-03T18:49:24.090Z,98.70
2017-10-03T18:51:52.240Z,98.60
2017-10-03T18:54:21.144Z,98.40
2017-10-03T18:56:49.231Z,98.40
2017-10-03T18:59:17.339Z,98.60
2017-10-03T19:01:46.187Z,98.40
2017-10-03T19:04:15.046Z,98.60
2017-10-03T19:06:43.117Z,98.60
2017-10-03T19:09:11.216Z,98.40
2017-10-03T19:11:40.071Z,99.20
2017-10-03T19:14:08.884Z,99.20
2017-10-03T19:16:37.006Z,99.20
2017-10-03T19:19:05.087Z,98.90
2017-10-03T19:21:33.196Z,99.10
2017-10-03T19:24:01.253Z,99.40
2017-10-03T19:26:29.372Z,99.80
2017-10-03T19:28:57.468Z,99.90
2017-10-03T19:31:25.559Z,99.90
2017-10-03T19:33:53.667Z,99.90
2017-10-03T19:36:22.497Z,99.90
2017-10-03T19:38:50.666Z,99.90
2017-10-03T19:41:18.788Z,99.90
2017-10-03T19:43:47.477Z,99.90
2017-10-03T19:46:16.383Z,99.90
2017-10-03T19:48:45.251Z,99.90
2017-10-03T19:51:13.358Z,99.90
2017-10-03T19:53:42.253Z,99.90
2017-10-03T19:56:10.333Z,99.90
2017-10-03T19:58:39.237Z,99.70
2017-10-03T20:01:08.248Z,99.90
2017-10-03T20:03:37.088Z,99.90
2017-10-03T20:06:05.201Z,99.90
2017-10-03T20:08:34.059Z,99.90
2017-10-03T20:11:02.190Z,99.90
2017-10-03T20:13:30.271Z,99.90
2017-10-03T20:15:58.363Z,99.90
2017-10-03T20:18:26.498Z,99.90
2017-10-03T20:20:54.566Z,99.90
2017-10-03T20:23:22.675Z,99.90
2017-10-03T20:25:50.759Z,99.90
2017-10-03T20:28:18.844Z,99.90
2017-10-03T20:30:46.902Z,99.90
2017-10-03T20:33:14.989Z,99.90
2017-10-03T20:35:43.945Z,99.90
2017-10-03T20:38:12.221Z,99.90
2017-10-03T20:40:40.283Z,99.90
2017-10-03T20:43:08.358Z,99.90
2017-10-03T20:45:36.464Z,99.90
2017-10-03T20:48:04.565Z,99.90
2017-10-03T20:50:32.671Z,99.90
2017-10-03T20:53:00.763Z,99.90
2017-10-03T20:55:28.863Z,99.90
2017-10-03T20:57:57.733Z,99.90
2017-10-03T21:00:25.858Z,99.90
2017-10-03T21:02:53.962Z,99.90
2017-10-03T21:05:22.810Z,99.90
2017-10-03T21:07:50.907Z,99.90
2017-10-03T21:10:19.774Z,99.90
2017-10-03T21:12:47.889Z,99.90
2017-10-03T21:15:16.851Z,99.90
2017-10-03T21:17:44.948Z,99.90
2017-10-03T21:20:13.021Z,99.90
2017-10-03T21:22:41.098Z,99.90
2017-10-03T21:25:09.955Z,99.90
2017-10-03T21:27:38.622Z,99.90
2017-10-03T21:30:06.735Z,99.90
2017-10-03T21:32:35.547Z,99.90
2017-10-03T21:35:03.658Z,99.90
2017-10-03T21:37:31.793Z,99.90
2017-10-03T21:39:59.873Z,99.90
2017-10-03T21:42:39.921Z,99.90
2017-10-03T21:45:08.000Z,99.90
2017-10-03T21:47:36.098Z,99.90
2017-10-03T21:50:04.153Z,99.90
2017-10-03T21:52:32.243Z,99.90
2017-10-03T21:55:00.338Z,99.90
2017-10-03T21:57:29.197Z,99.90
2017-10-03T21:59:57.318Z,99.90
2017-10-03T22:02:25.392Z,99.90
2017-10-03T22:04:53.514Z,99.90
2017-10-03T22:07:21.574Z,99.90
2017-10-03T22:09:49.646Z,99.90
2017-10-03T22:12:17.715Z,99.90
2017-10-03T22:14:46.307Z,99.90
2017-10-03T22:17:14.367Z,99.90
2017-10-03T22:19:42.414Z,99.90
2017-10-03T22:22:10.507Z,99.90
2017-10-03T22:24:38.584Z,99.90
2017-10-03T22:27:06.674Z,99.90
2017-10-03T22:29:34.743Z,99.70
2017-10-03T22:32:02.814Z,99.80
2017-10-03T22:34:30.920Z,99.80
2017-10-03T22:36:59.003Z,99.90
2017-10-03T22:39:27.111Z,99.90
2017-10-03T22:41:55.180Z,99.90
2017-10-03T22:44:23.274Z,99.90
2017-10-03T22:46:51.330Z,99.90
2017-10-03T22:49:19.456Z,99.90
2017-10-03T22:51:53.386Z,99.80
2017-10-03T22:54:21.452Z,99.90
2017-10-03T22:56:49.537Z,99.90
2017-10-03T22:59:17.675Z,99.90
2017-10-03T23:01:45.768Z,99.90
2017-10-03T23:04:13.839Z,99.90
2017-10-03T23:06:41.923Z,99.80
2017-10-03T23:09:10.034Z,99.90
2017-10-03T23:11:38.117Z,99.90
2017-10-03T23:14:06.188Z,99.90
2017-10-03T23:16:34.267Z,99.90
2017-10-03T23:19:02.469Z,99.90
2017-10-03T23:21:31.295Z,99.90
2017-10-03T23:23:59.379Z,99.90
2017-10-03T23:26:27.499Z,99.90
2017-10-03T23:28:56.326Z,99.80
2017-10-03T23:31:24.402Z,99.80
2017-10-03T23:33:52.500Z,99.90
2017-10-03T23:36:20.578Z,99.90
2017-10-03T23:38:48.683Z,99.70
2017-10-03T23:41:16.765Z,99.80
2017-10-03T23:43:44.846Z,99.90
2017-10-03T23:46:12.906Z,99.90
2017-10-03T23:48:40.994Z,99.90
2017-10-03T23:51:09.114Z,99.90
2017-10-03T23:53:37.959Z,99.90
2017-10-03T23:56:06.094Z,99.90
2017-10-03T23:58:34.143Z,99.90
